| time (UTC) | temp C | wind direction | speed KPH | gust KPH | rain 1hr cm | rain 24hr cm | rain mn cm | humidity % | barometer mb |
| 20260506231506 | 20 | 237 | 3.2 | 14.5 | 0.00 | 0.20 | 0.20 | 78 | 1008.0 |
| 20260506230014 | 20 | 233 | 4.8 | 16.1 | 0.00 | 0.20 | 0.20 | 77 | 1007.8 |
| 20260506224519 | 20 | 273 | 4.8 | 14.5 | 0.00 | 0.20 | 0.20 | 77 | 1007.8 |
| 20260506223023 | 20 | 244 | 1.6 | 17.7 | 0.00 | 0.20 | 0.20 | 78 | 1007.6 |
| 20260506221509 | 20 | 257 | 4.8 | 12.9 | 0.00 | 0.20 | 0.20 | 78 | 1007.9 |
| 20260506220023 | 20 | 249 | 1.6 | 19.3 | 0.00 | 0.20 | 0.20 | 78 | 1007.7 |
| 20260506214520 | 20 | 205 | 4.8 | 14.5 | 0.00 | 0.20 | 0.20 | 79 | 1007.7 |
| 20260506213029 | 19 | 271 | 4.8 | 29.0 | 0.00 | 0.20 | 0.20 | 79 | 1007.5 |
| 20260506211512 | 19 | 219 | 4.8 | 20.9 | 0.00 | 0.20 | 0.20 | 79 | 1007.5 |
| 20260506210020 | 19 | 275 | 6.4 | 20.9 | 0.00 | 0.20 | 0.20 | 80 | 1007.4 |
| 20260506204541 | 18 | 249 | 6.4 | 25.7 | 0.00 | 0.20 | 0.20 | 81 | 1007.4 |
| 20260506203019 | 18 | 136 | 4.8 | 20.9 | 0.00 | 0.20 | 0.20 | 81 | 1007.3 |
| 20260506201514 | 18 | 264 | 8.0 | 20.9 | 0.00 | 0.20 | 0.20 | 82 | 1007.2 |
| 20260506200022 | 18 | 245 | 6.4 | 24.1 | 0.00 | 0.20 | 0.20 | 83 | 1007.6 |
| 20260506194523 | 18 | 275 | 3.2 | 16.1 | 0.00 | 0.20 | 0.20 | 83 | 1007.8 |
| 20260506193015 | 17 | 198 | 4.8 | 27.4 | 0.00 | 0.20 | 0.20 | 83 | 1007.9 |
| 20260506190023 | 17 | 248 | 3.2 | 30.6 | 0.00 | 0.20 | 0.20 | 83 | 1008.1 |
| 20260506184527 | 17 | 192 | 4.8 | 33.8 | 0.00 | 0.20 | 0.20 | 83 | 1008.1 |
| 20260506183013 | 17 | 234 | 8.0 | 24.1 | 0.00 | 0.20 | 0.20 | 83 | 1008.2 |
| 20260506180027 | 17 | 245 | 4.8 | 16.1 | 0.00 | 0.20 | 0.20 | 85 | 1008.6 |
| 20260506174528 | 17 | 219 | 1.6 | 11.3 | 0.00 | 0.20 | 0.20 | 86 | 1008.5 |
| 20260506173015 | 17 | 307 | 4.8 | 20.9 | 0.03 | 0.20 | 0.20 | 86 | 1008.6 |
| 20260506171532 | 17 | 180 | 4.8 | 14.5 | 0.05 | 0.20 | 0.20 | 87 | 1008.6 |
| 20260506170024 | 17 | 292 | 4.8 | 17.7 | 0.10 | 0.20 | 0.20 | 88 | 1008.7 |
| 20260506164527 | 17 | 208 | 4.8 | 14.5 | 0.15 | 0.20 | 0.20 | 88 | 1008.7 |
| 20260506163018 | 17 | 187 | 4.8 | 11.3 | 0.15 | 0.18 | 0.18 | 87 | 1009.2 |
| 20260506161529 | 17 | 234 | 3.2 | 11.3 | 0.15 | 0.15 | 0.15 | 86 | 1009.8 |
| 20260506160039 | 17 | 227 | 3.2 | 9.7 | 0.10 | 0.10 | 0.10 | 84 | 1010.0 |
| 20260506154531 | 17 | 237 | 0.0 | 6.4 | 0.05 | 0.05 | 0.05 | 82 | 1010.0 |
| 20260506153022 | 18 | 281 | 3.2 | 16.1 | 0.03 | 0.03 | 0.03 | 77 | 1010.0 |
| 20260506151532 | 18 | 256 | 4.8 | 16.1 | 0.00 | 0.00 | 0.00 | 73 | 1009.9 |
| 20260506150031 | 19 | 175 | 4.8 | 19.3 | 0.00 | 0.00 | 0.00 | 73 | 1009.7 |
| 20260506144526 | 19 | 181 | 4.8 | 22.5 | 0.00 | 0.00 | 0.00 | 69 | 1010.1 |
| 20260506143038 | 20 | 248 | 11.3 | 33.8 | 0.00 | 0.00 | 0.00 | 68 | 1010.0 |
| 20260506140033 | 20 | 277 | 8.0 | 17.7 | 0.00 | 0.00 | 0.00 | 69 | 1009.8 |
| 20260506133024 | 19 | 248 | 4.8 | 22.5 | 0.00 | 0.00 | 0.00 | 71 | 1010.0 |
| 20260506131528 | 19 | 202 | 4.8 | 16.1 | 0.00 | 0.00 | 0.00 | 71 | 1010.0 |
| 20260506130027 | 19 | 267 | 8.0 | 17.7 | 0.00 | 0.00 | 0.00 | 71 | 1010.1 |
| 20260506124517 | 18 | 188 | 4.8 | 17.7 | 0.00 | 0.00 | 0.00 | 72 | 1010.2 |
| 20260506123024 | 18 | 202 | 6.4 | 17.7 | 0.00 | 0.00 | 0.00 | 72 | 1010.0 |
| 20260506121526 | 18 | 242 | 6.4 | 20.9 | 0.00 | 0.00 | 0.00 | 74 | 1009.9 |
| 20260506120026 | 18 | 274 | 6.4 | 27.4 | 0.00 | 0.00 | 0.00 | 74 | 1009.9 |
| 20260506114528 | 18 | 192 | 4.8 | 17.7 | 0.00 | 0.00 | 0.00 | 74 | 1009.8 |
| 20260506113026 | 18 | 175 | 8.0 | 27.4 | 0.00 | 0.00 | 0.00 | 75 | 1009.9 |
| 20260506111525 | 18 | 197 | 8.0 | 17.7 | 0.00 | 0.00 | 0.00 | 75 | 1009.9 |
| 20260506110016 | 18 | 223 | 4.8 | 16.1 | 0.00 | 0.00 | 0.00 | 76 | 1010.0 |
| 20260506104522 | 18 | 201 | 4.8 | 22.5 | 0.00 | 0.00 | 0.00 | 77 | 1009.9 |
| 20260506103015 | 17 | 151 | 6.4 | 20.9 | 0.00 | 0.00 | 0.00 | 78 | 1009.8 |
| 20260506100021 | 17 | 251 | 4.8 | 17.7 | 0.00 | 0.00 | 0.00 | 77 | 1009.8 |
| 20260506094523 | 17 | 219 | 6.4 | 20.9 | 0.00 | 0.00 | 0.00 | 77 | 1009.6 |
| 20260506093014 | 18 | 202 | 3.2 | 16.1 | 0.00 | 0.00 | 0.00 | 77 | 1009.7 |
| 20260506090021 | 18 | 203 | 4.8 | 17.7 | 0.00 | 0.00 | 0.00 | 76 | 1009.9 |
| 20260506084529 | 18 | 205 | 6.4 | 17.7 | 0.00 | 0.00 | 0.00 | 77 | 1009.8 |
| 20260506073013 | 18 | 178 | 4.8 | 12.9 | 0.00 | 0.00 | 0.00 | 74 | 1010.0 |
| 20260506061522 | 19 | 272 | 4.8 | 16.1 | 0.00 | 0.00 | 0.00 | 72 | 1010.1 |
| 20260506044523 | 20 | 128 | 4.8 | 22.5 | 0.00 | 0.00 | 0.00 | 67 | 1010.8 |
| 20260506043025 | 20 | 184 | 4.8 | 19.3 | 0.00 | 0.00 | 0.00 | 66 | 1010.8 |
| 20260506041531 | 20 | 144 | 8.0 | 19.3 | 0.00 | 0.00 | 0.00 | 65 | 1010.9 |
| 20260506040014 | 20 | 215 | 3.2 | 24.1 | 0.00 | 0.00 | 0.00 | 64 | 1010.7 |
| 20260506034518 | 20 | 275 | 6.4 | 33.8 | 0.00 | 0.00 | 0.00 | 62 | 1010.4 |
| 20260506033027 | 20 | 233 | 6.4 | 24.1 | 0.00 | 0.00 | 0.00 | 62 | 1010.5 |
| 20260506031526 | 21 | 264 | 4.8 | 22.5 | 0.00 | 0.00 | 0.00 | 61 | 1010.6 |
| 20260506030018 | 21 | 297 | 6.4 | 16.1 | 0.00 | 0.00 | 0.00 | 60 | 1010.6 |
| 20260506024519 | 21 | 167 | 4.8 | 22.5 | 0.00 | 0.00 | 0.00 | 59 | 1010.7 |
| 20260506023023 | 21 | 248 | 4.8 | 20.9 | 0.00 | 0.00 | 0.00 | 59 | 1010.7 |
| 20260506020021 | 21 | 167 | 4.8 | 22.5 | 0.00 | 0.00 | 0.00 | 58 | 1010.7 |
| 20260506014520 | 21 | 239 | 3.2 | 22.5 | 0.00 | 0.00 | 0.00 | 58 | 1010.6 |
| 20260506013029 | 22 | 196 | 8.0 | 22.5 | 0.00 | 0.00 | 0.00 | 56 | 1010.6 |
| 20260506011509 | 22 | 174 | 8.0 | 22.5 | 0.00 | 0.00 | 0.00 | 52 | 1010.3 |
| 20260506010023 | 23 | 217 | 8.0 | 17.7 | 0.00 | 0.00 | 0.00 | 49 | 1010.1 |
| 20260506004534 | 23 | 199 | 8.0 | 24.1 | 0.00 | 0.00 | 0.00 | 45 | 1010.1 |
| 20260506003024 | 24 | 226 | 4.8 | 19.3 | 0.00 | 0.00 | 0.00 | 43 | 1009.9 |
| 20260506001513 | 24 | 273 | 6.4 | 19.3 | 0.00 | 0.00 | 0.00 | 42 | 1009.5 |
| 20260506000020 | 24 | 223 | 4.8 | 16.1 | 0.00 | 0.00 | 0.00 | 42 | 1009.5 |
| 20260505234522 | 25 | 265 | 3.2 | 16.1 | 0.00 | 0.00 | 0.00 | 42 | 1009.3 |
| 20260505233026 | 25 | 267 | 4.8 | 16.1 | 0.00 | 0.00 | 0.00 | 42 | 1009.3 |